Time;durP1;ratioP1;P1;durP2;ratioP2;P2;SDS_P1;SDS_P2;PMS_P1;PMS_P2;Temp;Humidity;BMP_temperature;BMP_pressure;BME280_temperature;BME280_humidity;BME280_pressure;Samples;Min_cycle;Max_cycle;Signal;HPM_P1;HPM_P2
2021/10/03 00:00:30;;;;;;;;;;;;;;;15.39;66.06;96059.91;30001;983;1858;-62
2021/10/03 00:01:01;;;;;;;;;;;;;;;15.37;66.18;96065.72;30001;983;1858;-61
2021/10/03 00:01:33;;;;;;;;;;;;;;;15.36;66.12;96063.34;30001;983;1880;-61
2021/10/03 00:02:04;;;;;;;;;;;;;;;15.35;66.40;96062.53;30001;983;1884;-62
2021/10/03 00:02:37;;;;;;;;;;;;;;;15.36;66.20;96069.59;30001;969;1893;-61
2021/10/03 00:03:10;;;;;;;;;;;;;;;15.34;66.42;96060.16;30001;982;1885;-61
2021/10/03 00:03:44;;;;;;;;;;;;;;;15.33;66.28;96064.81;30001;982;1880;-61
2021/10/03 00:04:16;;;;;;;;;;;;;;;15.33;66.16;96067.56;30001;982;1885;-61
2021/10/03 00:04:47;;;;;;;;;;;;;;;15.33;66.59;96074.94;30001;982;1880;-60
2021/10/03 00:05:19;;;;;;;;;;;;;;;15.32;66.47;96063.22;30001;982;1885;-62
2021/10/03 00:06:01;;;;;;;;;;;;;;;15.32;66.68;96063.22;30001;983;1858;-62
2021/10/03 00:06:33;;;;;;;;;;;;;;;15.32;66.53;96068.69;30001;983;1880;-62
2021/10/03 00:07:04;;;;;;;;;;;;;;;15.31;66.29;96061.63;30001;983;1880;-61
2021/10/03 00:07:36;;;;;;;;;;;;;;;15.33;66.70;96064.81;30001;983;1884;-62
2021/10/03 00:08:07;;;;;;;;;;;;;;;15.32;66.16;96065.94;30001;983;1880;-60
2021/10/03 00:08:38;;;;;;;;;;;;;;;15.33;66.06;96064.81;30001;983;1884;-61
2021/10/03 00:09:09;;;;;;;;;;;;;;;15.33;65.87;96059.34;30001;983;1880;-61
2021/10/03 00:09:40;;;;;;;;;;;;;;;15.32;66.08;96057.75;30001;983;1884;-60
2021/10/03 00:10:12;;;;;;;;;;;;;;;15.30;66.12;96054.56;30001;982;1880;-63
2021/10/03 00:10:43;;;;;;;;;;;;;;;15.30;66.02;96060.03;30001;982;1863;-61
2021/10/03 00:11:14;;;;;;;;;;;;;;;15.29;65.95;96061.16;30001;982;1876;-61
2021/10/03 00:11:46;;;;;;;;;;;;;;;15.29;66.23;96058.44;30001;982;1885;-61
2021/10/03 00:12:18;;;;;;;;;;;;;;;15.29;65.86;96058.44;30001;982;1858;-62
2021/10/03 00:12:49;;;;;;;;;;;;;;;15.28;66.00;96062.31;30001;982;1881;-62
2021/10/03 00:13:24;;;;;;;;;;;;;;;15.27;65.87;96055.25;30001;983;1880;-61
2021/10/03 00:13:55;;;;;;;;;;;;;;;15.27;65.99;96055.25;30001;983;1884;-61
2021/10/03 00:14:26;;;;;;;;;;;;;;;15.26;65.75;96064.59;30001;983;1880;-61
2021/10/03 00:14:57;;;;;;;;;;;;;;;15.27;65.83;96054.44;30001;983;1884;-60
2021/10/03 00:15:29;;;;;;;;;;;;;;;15.26;65.75;96050.91;30001;983;1880;-61
2021/10/03 00:16:00;;;;;;;;;;;;;;;15.26;65.71;96052.84;30001;983;1884;-61
2021/10/03 00:16:31;;;;;;;;;;;;;;;15.27;65.57;96055.25;30001;983;1880;-61
2021/10/03 00:17:02;;;;;;;;;;;;;;;15.27;65.74;96052.50;30001;983;1884;-62
2021/10/03 00:17:36;;;;;;;;;;;;;;;15.29;65.54;96055.69;30001;986;1858;-60
2021/10/03 00:18:08;;;;;;;;;;;;;;;15.29;65.45;96052.97;30001;982;1880;-62
2021/10/03 00:18:39;;;;;;;;;;;;;;;15.29;65.09;96052.19;30001;982;1880;-61
2021/10/03 00:19:10;;;;;;;;;;;;;;;15.30;65.44;96056.50;30001;982;1885;-61
2021/10/03 00:19:41;;;;;;;;;;;;;;;15.29;65.04;96058.44;30001;982;1880;-60
2021/10/03 00:20:13;;;;;;;;;;;;;;;15.29;64.94;96055.69;30001;983;1884;-61
2021/10/03 00:20:44;;;;;;;;;;;;;;;15.27;65.32;96049.78;30001;983;1858;-61
2021/10/03 00:21:16;;;;;;;;;;;;;;;15.26;65.26;96053.66;30001;983;1879;-60
2021/10/03 00:21:48;;;;;;;;;;;;;;;15.26;65.29;96048.19;30001;983;1880;-61
2021/10/03 00:22:19;;;;;;;;;;;;;;;15.26;65.35;96053.66;30001;983;1884;-61
2021/10/03 00:22:50;;;;;;;;;;;;;;;15.25;65.24;96052.06;30001;983;1880;-61
2021/10/03 00:23:22;;;;;;;;;;;;;;;15.27;65.41;96052.50;30001;983;1884;-61
2021/10/03 00:23:52;;;;;;;;;;;;;;;15.28;64.93;96051.38;30001;983;1880;-60
2021/10/03 00:24:24;;;;;;;;;;;;;;;15.30;65.06;96054.56;30001;983;1884;-60
2021/10/03 00:24:57;;;;;;;;;;;;;;;15.31;65.03;96058.09;30001;982;1858;-59
2021/10/03 00:25:28;;;;;;;;;;;;;;;15.29;64.97;96052.97;30001;982;1880;-61
2021/10/03 00:26:00;;;;;;;;;;;;;;;15.28;64.73;96062.31;30001;982;1881;-60
2021/10/03 00:26:32;;;;;;;;;;;;;;;15.28;65.13;96061.50;30001;982;1885;-61
2021/10/03 00:27:04;;;;;;;;;;;;;;;15.27;64.83;96060.72;30001;982;1881;-60
2021/10/03 00:27:35;;;;;;;;;;;;;;;15.27;65.33;96060.72;30001;983;1884;-61
2021/10/03 00:28:07;;;;;;;;;;;;;;;15.27;64.87;96068.13;30001;983;1880;-61
2021/10/03 00:28:38;;;;;;;;;;;;;;;15.26;65.25;96061.84;30001;983;1884;-61
2021/10/03 00:29:09;;;;;;;;;;;;;;;15.25;65.26;96064.94;30001;971;1901;-61
2021/10/03 00:29:40;;;;;;;;;;;;;;;15.25;65.27;96073.13;30001;983;1884;-61
2021/10/03 00:30:14;;;;;;;;;;;;;;;15.26;65.05;96069.25;30001;983;1858;-60
2021/10/03 00:30:45;;;;;;;;;;;;;;;15.26;64.95;96067.31;30001;983;1858;-61
2021/10/03 00:31:16;;;;;;;;;;;;;;;15.27;64.96;96066.19;30001;983;1880;-61
2021/10/03 00:31:47;;;;;;;;;;;;;;;15.27;65.12;96066.19;30001;983;1884;-61
2021/10/03 00:32:18;;;;;;;;;;;;;;;15.29;64.65;96063.91;30001;983;1880;-60
2021/10/03 00:32:49;;;;;;;;;;;;;;;15.31;64.76;96069.81;30001;982;1885;-61
2021/10/03 00:33:20;;;;;;;;;;;;;;;15.32;64.46;96074.16;30001;982;1880;-61
2021/10/03 00:33:51;;;;;;;;;;;;;;;15.32;64.78;96073.34;30001;982;1885;-61
2021/10/03 00:34:22;;;;;;;;;;;;;;;15.31;64.50;96077.22;30001;982;1880;-60
2021/10/03 00:34:52;;;;;;;;;;;;;;;15.30;64.75;96076.44;30001;982;1885;-61
2021/10/03 00:35:23;;;;;;;;;;;;;;;15.30;64.91;96081.91;30001;983;1858;-61
2021/10/03 00:35:54;;;;;;;;;;;;;;;15.28;64.89;96081.44;30001;983;1858;-61
2021/10/03 00:36:25;;;;;;;;;;;;;;;15.28;64.87;96075.97;30001;983;1880;-61
2021/10/03 00:36:56;;;;;;;;;;;;;;;15.28;64.99;96078.72;30001;983;1884;-60
2021/10/03 00:37:27;;;;;;;;;;;;;;;15.27;64.86;96082.56;30001;983;1880;-60
2021/10/03 00:37:59;;;;;;;;;;;;;;;15.28;64.97;96072.44;30001;983;1884;-63
2021/10/03 00:38:30;;;;;;;;;;;;;;;15.27;64.70;96071.66;30001;983;1880;-61
2021/10/03 00:39:01;;;;;;;;;;;;;;;15.27;64.58;96071.66;30001;983;1785;-60
2021/10/03 00:39:32;;;;;;;;;;;;;;;15.27;65.07;96077.13;30001;982;1876;-62
2021/10/03 00:40:03;;;;;;;;;;;;;;;15.25;65.13;96068.47;30001;982;1885;-60
2021/10/03 00:40:36;;;;;;;;;;;;;;;15.25;65.08;96062.19;30001;982;1880;-61
2021/10/03 00:41:07;;;;;;;;;;;;;;;15.24;65.20;96064.16;30001;982;1885;-62
2021/10/03 00:41:38;;;;;;;;;;;;;;;15.24;64.97;96066.91;30001;982;1880;-60
2021/10/03 00:42:09;;;;;;;;;;;;;;;15.24;65.25;96066.91;30001;982;1885;-61
2021/10/03 00:42:40;;;;;;;;;;;;;;;15.24;64.95;96064.16;30001;983;1879;-60
2021/10/03 00:43:12;;;;;;;;;;;;;;;15.25;64.80;96073.91;30001;983;1884;-61
2021/10/03 00:43:43;;;;;;;;;;;;;;;15.25;64.79;96062.19;30001;983;1880;-60
2021/10/03 00:44:14;;;;;;;;;;;;;;;15.26;64.62;96067.31;30001;983;1862;-60
2021/10/03 00:44:45;;;;;;;;;;;;;;;15.25;64.78;96060.25;30001;983;1875;-61
2021/10/03 00:45:16;;;;;;;;;;;;;;;15.26;64.44;96067.31;30001;983;1884;-60
2021/10/03 00:45:47;;;;;;;;;;;;;;;15.26;64.58;96064.59;30001;983;1880;-61
2021/10/03 00:46:17;;;;;;;;;;;;;;;15.26;64.80;96063.78;30001;983;1863;-62
2021/10/03 00:46:48;;;;;;;;;;;;;;;15.27;64.33;96060.72;30001;982;1876;-60
2021/10/03 00:47:20;;;;;;;;;;;;;;;15.28;64.50;96059.56;30001;982;1884;-61
2021/10/03 00:47:50;;;;;;;;;;;;;;;15.29;64.12;96057.62;30001;982;1880;-60
2021/10/03 00:48:21;;;;;;;;;;;;;;;15.29;64.47;96058.44;30001;982;1885;-62
2021/10/03 00:48:53;;;;;;;;;;;;;;;15.29;64.10;96057.62;30001;982;1880;-61
2021/10/03 00:49:24;;;;;;;;;;;;;;;15.32;64.48;96062.44;30001;982;1885;-61
2021/10/03 00:49:56;;;;;;;;;;;;;;;15.33;63.99;96056.62;30001;982;1880;-60
2021/10/03 00:50:28;;;;;;;;;;;;;;;15.35;64.13;96057.06;30001;983;1884;-61
2021/10/03 00:50:59;;;;;;;;;;;;;;;15.39;63.53;96057.19;30001;983;1880;-60
2021/10/03 00:51:30;;;;;;;;;;;;;;;15.39;63.55;96051.72;30001;983;1862;-61
2021/10/03 00:52:02;;;;;;;;;;;;;;;15.39;63.71;96055.25;30001;983;1875;-60
2021/10/03 00:52:33;;;;;;;;;;;;;;;15.41;63.75;96055.69;30001;983;1862;-60
2021/10/03 00:53:04;;;;;;;;;;;;;;;15.41;63.38;96054.91;30001;983;1876;-62
2021/10/03 00:53:34;;;;;;;;;;;;;;;15.40;63.85;96053.31;30001;983;1884;-61
2021/10/03 00:54:05;;;;;;;;;;;;;;;15.38;63.74;96059.13;30001;983;1794;-60
2021/10/03 00:54:36;;;;;;;;;;;;;;;15.39;63.84;96057.97;30001;982;1884;-61
2021/10/03 00:55:08;;;;;;;;;;;;;;;15.38;63.80;96050.91;30001;982;1880;-61
2021/10/03 00:55:39;;;;;;;;;;;;;;;15.36;63.94;96053.19;30001;982;1885;-61
2021/10/03 00:56:12;;;;;;;;;;;;;;;15.36;63.97;96053.19;30001;982;1858;-60
2021/10/03 00:56:44;;;;;;;;;;;;;;;15.35;63.88;96051.59;30001;982;1881;-60
2021/10/03 00:57:15;;;;;;;;;;;;;;;15.34;63.88;96050.00;30001;982;1880;-60
2021/10/03 00:57:48;;;;;;;;;;;;;;;15.38;63.85;96050.91;30001;983;1884;-61
2021/10/03 00:58:19;;;;;;;;;;;;;;;15.42;63.77;96045.56;30001;983;1880;-60
2021/10/03 00:58:49;;;;;;;;;;;;;;;15.42;63.45;96051.81;30001;983;1884;-63
2021/10/03 00:59:20;;;;;;;;;;;;;;;15.43;63.34;96055.34;30001;983;1880;-61
2021/10/03 00:59:51;;;;;;;;;;;;;;;15.43;63.22;96050.69;30001;983;1884;-60
2021/10/03 01:00:24;;;;;;;;;;;;;;;15.46;63.23;96051.16;30001;983;1880;-61
2021/10/03 01:00:55;;;;;;;;;;;;;;;15.46;63.21;96051.16;30001;983;1884;-61
2021/10/03 01:01:29;;;;;;;;;;;;;;;15.42;63.82;96051.03;30001;983;1858;-61
2021/10/03 01:02:00;;;;;;;;;;;;;;;15.38;63.85;96055.59;30001;982;1880;-62
2021/10/03 01:02:31;;;;;;;;;;;;;;;15.36;63.98;96047.72;30001;982;1880;-62
2021/10/03 01:03:03;;;;;;;;;;;;;;;15.36;63.79;96057.88;30001;982;1863;-61
2021/10/03 01:03:35;;;;;;;;;;;;;;;15.33;64.08;96042.94;30001;982;1876;-62
2021/10/03 01:04:06;;;;;;;;;;;;;;;15.31;64.10;96045.22;30001;982;1885;-61
2021/10/03 01:04:37;;;;;;;;;;;;;;;15.29;64.17;96043.97;30001;982;1881;-61
2021/10/03 01:05:08;;;;;;;;;;;;;;;15.30;64.00;96040.91;30001;982;1863;-61
2021/10/03 01:05:39;;;;;;;;;;;;;;;15.30;64.05;96040.91;30001;983;1875;-61
2021/10/03 01:06:10;;;;;;;;;;;;;;;15.31;64.08;96039.75;30001;983;1884;-60
2021/10/03 01:06:41;;;;;;;;;;;;;;;15.32;64.00;96046.81;30001;983;1880;-60
2021/10/03 01:07:12;;;;;;;;;;;;;;;15.32;64.17;96040.56;30001;983;1884;-62
2021/10/03 01:07:43;;;;;;;;;;;;;;;15.36;63.58;96045.00;30001;983;1880;-61
2021/10/03 01:08:14;;;;;;;;;;;;;;;15.37;63.86;96046.59;30001;983;1884;-60
2021/10/03 01:08:45;;;;;;;;;;;;;;;15.38;63.56;96039.19;30001;983;1858;-60
2021/10/03 01:09:16;;;;;;;;;;;;;;;15.39;63.55;96040.78;30001;983;1858;-62
2021/10/03 01:09:47;;;;;;;;;;;;;;;15.40;63.76;96042.38;30001;982;1880;-60
2021/10/03 01:10:22;;;;;;;;;;;;;;;15.41;63.82;96039.31;30001;982;1885;-62
2021/10/03 01:10:53;;;;;;;;;;;;;;;15.40;63.62;96032.25;30001;982;1880;-61
2021/10/03 01:11:24;;;;;;;;;;;;;;;15.39;63.95;96041.59;30001;982;1885;-61
2021/10/03 01:11:55;;;;;;;;;;;;;;;15.41;63.81;96036.56;30001;983;1880;-61
2021/10/03 01:12:26;;;;;;;;;;;;;;;15.40;63.89;96039.63;30001;983;1884;-60
2021/10/03 01:13:05;;;;;;;;;;;;;;;15.38;63.95;96033.72;30001;983;1880;-61
2021/10/03 01:13:36;;;;;;;;;;;;;;;15.37;63.53;96032.94;30001;983;1862;-61
2021/10/03 01:14:07;;;;;;;;;;;;;;;15.39;63.60;96033.38;30001;983;1853;-61
2021/10/03 01:14:38;;;;;;;;;;;;;;;15.38;63.94;96034.53;30001;983;1884;-60
2021/10/03 01:15:09;;;;;;;;;;;;;;;15.38;63.73;96034.53;30001;983;1880;-61
2021/10/03 01:15:42;;;;;;;;;;;;;;;15.36;63.74;96031.34;30001;983;1884;-61
2021/10/03 01:16:13;;;;;;;;;;;;;;;15.38;63.71;96020.06;30001;983;1880;-59
2021/10/03 01:16:45;;;;;;;;;;;;;;;15.37;63.92;96027.47;30001;983;1884;-61
2021/10/03 01:17:15;;;;;;;;;;;;;;;15.36;63.98;96020.41;30001;982;1880;-61
2021/10/03 01:17:46;;;;;;;;;;;;;;;15.32;64.08;96021.44;30001;982;1863;-60
2021/10/03 01:18:17;;;;;;;;;;;;;;;15.28;64.34;96024.03;30001;982;1876;-62
2021/10/03 01:18:48;;;;;;;;;;;;;;;15.25;64.24;96027.47;30001;982;1885;-61
2021/10/03 01:19:19;;;;;;;;;;;;;;;15.23;64.49;96021.56;30001;982;1880;-60
2021/10/03 01:19:52;;;;;;;;;;;;;;;15.24;64.55;96022.37;30001;983;1884;-61
2021/10/03 01:20:23;;;;;;;;;;;;;;;15.26;64.22;96020.84;30001;983;1880;-62
2021/10/03 01:20:54;;;;;;;;;;;;;;;15.25;64.30;96019.25;30001;983;1884;-60
2021/10/03 01:21:26;;;;;;;;;;;;;;;15.26;64.31;96018.12;30001;983;1880;-61
2021/10/03 01:21:57;;;;;;;;;;;;;;;15.25;64.40;96013.81;30001;983;1862;-61
2021/10/03 01:22:28;;;;;;;;;;;;;;;15.26;64.41;96012.66;30001;983;1876;-61
2021/10/03 01:23:03;;;;;;;;;;;;;;;15.26;64.32;96011.88;30001;983;1862;-61
2021/10/03 01:23:35;;;;;;;;;;;;;;;15.27;64.39;96008.78;30001;983;1876;-60
2021/10/03 01:24:06;;;;;;;;;;;;;;;15.27;64.68;96017.00;30001;983;1885;-61
2021/10/03 01:24:37;;;;;;;;;;;;;;;15.27;64.51;96017.00;30001;982;1880;-61
2021/10/03 01:25:09;;;;;;;;;;;;;;;15.29;64.78;96014.72;30001;982;1885;-59
2021/10/03 01:25:41;;;;;;;;;;;;;;;15.27;64.37;96017.00;30001;982;1880;-61
2021/10/03 01:26:12;;;;;;;;;;;;;;;15.29;64.82;96020.19;30001;982;1885;-61
2021/10/03 01:26:43;;;;;;;;;;;;;;;15.27;64.44;96017.00;30001;982;1880;-60
2021/10/03 01:27:13;;;;;;;;;;;;;;;15.25;64.81;96013.81;30001;983;1884;-60
2021/10/03 01:27:44;;;;;;;;;;;;;;;15.23;64.63;96015.31;30001;983;1858;-59
2021/10/03 01:28:17;;;;;;;;;;;;;;;15.21;64.71;96018.38;30001;983;1858;-61
2021/10/03 01:28:53;;;;;;;;;;;;;;;15.19;64.92;96017.94;30001;983;1880;-60
2021/10/03 01:29:24;;;;;;;;;;;;;;;15.18;65.11;96019.06;30001;983;1884;-60
2021/10/03 01:29:55;;;;;;;;;;;;;;;15.16;64.78;96013.16;30001;983;1880;-61
2021/10/03 01:30:26;;;;;;;;;;;;;;;15.15;65.31;96008.81;30001;983;1885;-62
2021/10/03 01:30:57;;;;;;;;;;;;;;;15.18;65.04;96010.06;30001;983;1880;-61
2021/10/03 01:31:29;;;;;;;;;;;;;;;15.20;64.64;96007.81;30001;983;1884;-61
2021/10/03 01:32:00;;;;;;;;;;;;;;;15.18;64.73;96019.06;30001;983;1880;-61
2021/10/03 01:32:31;;;;;;;;;;;;;;;15.17;64.88;96011.22;30001;982;1885;-61
2021/10/03 01:33:02;;;;;;;;;;;;;;;15.16;65.07;96015.09;30001;962;1879;-60
2021/10/03 01:33:33;;;;;;;;;;;;;;;15.13;65.20;96005.63;30001;982;1880;-62
2021/10/03 01:34:04;;;;;;;;;;;;;;;15.11;65.01;96016.13;30001;982;1880;-61
2021/10/03 01:34:35;;;;;;;;;;;;;;;15.13;65.07;96011.09;30001;983;1884;-61
2021/10/03 01:35:07;;;;;;;;;;;;;;;15.11;65.18;96010.66;30001;983;1880;-60
2021/10/03 01:35:39;;;;;;;;;;;;;;;15.14;65.43;96012.69;30001;983;1884;-61
2021/10/03 01:36:09;;;;;;;;;;;;;;;15.14;65.32;96012.69;30001;983;1880;-62
2021/10/03 01:36:40;;;;;;;;;;;;;;;15.16;65.23;96010.41;30001;983;1884;-61
2021/10/03 01:37:11;;;;;;;;;;;;;;;15.16;65.04;96009.63;30001;983;1880;-60
2021/10/03 01:37:42;;;;;;;;;;;;;;;15.15;65.09;96014.28;30001;983;1862;-60
2021/10/03 01:38:15;;;;;;;;;;;;;;;15.15;65.28;96008.03;30001;983;1876;-60
2021/10/03 01:38:46;;;;;;;;;;;;;;;15.13;65.34;96005.63;30001;983;1884;-61
2021/10/03 01:39:17;;;;;;;;;;;;;;;15.11;65.00;96007.91;30001;983;1880;-59
2021/10/03 01:39:48;;;;;;;;;;;;;;;15.10;65.21;96011.78;30001;982;1885;-60
2021/10/03 01:40:20;;;;;;;;;;;;;;;15.10;65.32;96017.25;30001;982;1880;-61
2021/10/03 01:40:51;;;;;;;;;;;;;;;15.11;65.37;96010.66;30001;982;1885;-60
2021/10/03 01:41:22;;;;;;;;;;;;;;;15.12;65.18;96006.78;30001;982;1880;-61
2021/10/03 01:41:53;;;;;;;;;;;;;;;15.12;65.48;96009.50;30001;982;1885;-61
2021/10/03 01:42:23;;;;;;;;;;;;;;;15.12;65.29;96014.97;30001;983;1858;-60
2021/10/03 01:42:55;;;;;;;;;;;;;;;15.12;65.06;96016.91;30001;983;1858;-61
2021/10/03 01:43:25;;;;;;;;;;;;;;;15.11;65.31;96007.91;30001;983;1880;-62
2021/10/03 01:44:00;;;;;;;;;;;;;;;15.11;65.34;96010.66;30001;983;1884;-61
2021/10/03 01:44:30;;;;;;;;;;;;;;;15.13;65.03;96004.84;30001;983;1880;-61
2021/10/03 01:45:03;;;;;;;;;;;;;;;15.12;65.14;96005.97;30001;983;1884;-59
2021/10/03 01:45:34;;;;;;;;;;;;;;;15.13;65.29;96007.56;30001;983;1880;-59
2021/10/03 01:46:05;;;;;;;;;;;;;;;15.15;65.13;96000.63;30001;983;1884;-60
2021/10/03 01:46:36;;;;;;;;;;;;;;;15.13;64.81;96005.63;30001;982;1880;-60
2021/10/03 01:47:08;;;;;;;;;;;;;;;15.16;64.77;96010.41;30001;982;1884;-61
2021/10/03 01:47:58;;;;;;;;;;;;;;;15.18;64.89;95999.94;30001;982;1880;-61
2021/10/03 01:48:29;;;;;;;;;;;;;;;15.18;65.02;95999.16;30001;982;1859;-60
2021/10/03 01:49:00;;;;;;;;;;;;;;;15.16;65.06;95993.22;30001;982;1876;-61
2021/10/03 01:49:31;;;;;;;;;;;;;;;15.17;65.12;96001.09;30001;982;1885;-61
2021/10/03 01:50:02;;;;;;;;;;;;;;;15.15;65.06;95995.16;30001;983;1880;-61
2021/10/03 01:50:35;;;;;;;;;;;;;;;15.15;65.44;95999.84;30001;983;1884;-60
2021/10/03 01:51:07;;;;;;;;;;;;;;;15.15;65.16;96006.09;30001;983;1880;-61
2021/10/03 01:51:38;;;;;;;;;;;;;;;15.18;65.20;96001.88;30001;983;1863;-61
2021/10/03 01:52:09;;;;;;;;;;;;;;;15.22;65.00;95997.31;30001;983;1854;-62
2021/10/03 01:52:40;;;;;;;;;;;;;;;15.20;65.21;95994.94;30001;983;1884;-61
2021/10/03 01:53:12;;;;;;;;;;;;;;;15.20;64.95;95983.22;30001;983;1880;-60
2021/10/03 01:53:48;;;;;;;;;;;;;;;15.18;65.38;95993.69;30001;983;1884;-60
2021/10/03 01:54:19;;;;;;;;;;;;;;;15.14;65.22;95990.84;30001;982;1858;-62
2021/10/03 01:54:50;;;;;;;;;;;;;;;15.13;65.39;95986.50;30001;982;1880;-62
2021/10/03 01:55:21;;;;;;;;;;;;;;;15.12;65.17;95979.44;30001;982;1881;-60
2021/10/03 01:55:53;;;;;;;;;;;;;;;15.12;65.50;95986.84;30001;982;1885;-60
2021/10/03 01:56:24;;;;;;;;;;;;;;;15.10;65.44;95989.94;30001;982;1859;-60
2021/10/03 01:56:55;;;;;;;;;;;;;;;15.09;65.46;95982.88;30001;982;1880;-62
2021/10/03 01:57:26;;;;;;;;;;;;;;;15.11;65.46;95986.06;30001;983;1880;-61
2021/10/03 01:57:58;;;;;;;;;;;;;;;15.10;65.57;95984.47;30001;983;1884;-60
2021/10/03 01:58:31;;;;;;;;;;;;;;;15.10;65.43;95987.19;30001;983;1880;-60
2021/10/03 01:59:03;;;;;;;;;;;;;;;15.06;65.55;95987.09;30001;969;1908;-60
2021/10/03 01:59:34;;;;;;;;;;;;;;;15.06;65.27;95989.81;30001;983;1879;-60
2021/10/03 02:00:05;;;;;;;;;;;;;;;15.06;65.45;95989.03;30001;983;1884;-59
2021/10/03 02:00:37;;;;;;;;;;;;;;;15.06;65.39;95989.03;30001;983;1880;-62
2021/10/03 02:01:10;;;;;;;;;;;;;;;15.06;65.63;95991.75;30001;983;1884;-61
2021/10/03 02:01:46;;;;;;;;;;;;;;;15.06;65.46;95983.56;30001;982;1858;-61
2021/10/03 02:02:17;;;;;;;;;;;;;;;15.07;65.69;95985.16;30001;982;1880;-62
2021/10/03 02:02:55;;;;;;;;;;;;;;;15.07;65.40;95979.69;30001;982;1880;-60
2021/10/03 02:03:25;;;;;;;;;;;;;;;15.07;65.53;95974.22;30001;982;1863;-60
2021/10/03 02:04:00;;;;;;;;;;;;;;;15.04;65.45;95978.44;30001;982;1876;-61
2021/10/03 02:04:30;;;;;;;;;;;;;;;15.05;65.56;95971.03;30001;982;1863;-60
2021/10/03 02:05:02;;;;;;;;;;;;;;;15.05;65.24;95982.75;30001;983;1875;-60
2021/10/03 02:05:37;;;;;;;;;;;;;;;15.07;65.39;95979.69;30001;983;1884;-62
2021/10/03 02:06:08;;;;;;;;;;;;;;;15.08;65.23;95975.81;30001;983;1880;-62
2021/10/03 02:06:43;;;;;;;;;;;;;;;15.08;65.49;95976.59;30001;983;1884;-61
2021/10/03 02:07:17;;;;;;;;;;;;;;;15.11;65.43;95977.84;30001;983;1858;-60
2021/10/03 02:07:48;;;;;;;;;;;;;;;15.15;65.45;95970.56;30001;983;1880;-62
2021/10/03 02:08:19;;;;;;;;;;;;;;;15.15;65.31;95970.56;30001;983;1880;-60
2021/10/03 02:08:51;;;;;;;;;;;;;;;15.16;65.10;95968.63;30001;983;1862;-63
2021/10/03 02:09:25;;;;;;;;;;;;;;;15.16;65.11;95960.44;30001;982;1876;-63
2021/10/03 02:09:57;;;;;;;;;;;;;;;15.17;65.02;95962.81;30001;982;1885;-63
2021/10/03 02:10:28;;;;;;;;;;;;;;;15.16;65.09;95966.69;30001;982;1880;-62
2021/10/03 02:11:00;;;;;;;;;;;;;;;15.13;65.42;95961.13;30001;982;1885;-60
2021/10/03 02:11:31;;;;;;;;;;;;;;;15.12;65.15;95962.25;30001;982;1858;-61
2021/10/03 02:12:02;;;;;;;;;;;;;;;15.12;65.48;95960.31;30001;982;1880;-61
2021/10/03 02:12:35;;;;;;;;;;;;;;;15.10;65.18;95962.59;30001;983;1880;-61
2021/10/03 02:13:07;;;;;;;;;;;;;;;15.07;65.46;95963.28;30001;983;1884;-60
2021/10/03 02:13:38;;;;;;;;;;;;;;;15.06;65.23;95967.97;30001;983;1880;-59
2021/10/03 02:14:09;;;;;;;;;;;;;;;15.05;65.72;95965.56;30001;983;1884;-60
2021/10/03 02:14:40;;;;;;;;;;;;;;;15.02;65.41;95960.78;30001;983;1880;-60
2021/10/03 02:15:11;;;;;;;;;;;;;;;15.02;65.85;95961.59;30001;983;1884;-60
2021/10/03 02:15:43;;;;;;;;;;;;;;;15.02;65.59;95966.25;30001;983;1880;-60
2021/10/03 02:16:13;;;;;;;;;;;;;;;15.00;65.83;95963.88;30001;983;1884;-60
2021/10/03 02:16:44;;;;;;;;;;;;;;;14.98;65.68;95959.88;30001;982;1858;-60
2021/10/03 02:17:15;;;;;;;;;;;;;;;14.97;66.02;95963.75;30001;982;1880;-60
2021/10/03 02:17:46;;;;;;;;;;;;;;;14.97;66.02;95963.75;30001;982;1880;-61
2021/10/03 02:18:18;;;;;;;;;;;;;;;14.97;66.17;95969.22;30001;982;1885;-60
2021/10/03 02:18:49;;;;;;;;;;;;;;;14.95;66.01;95971.50;30001;982;1880;-63
2021/10/03 02:19:19;;;;;;;;;;;;;;;14.94;66.45;95969.91;30001;983;1884;-59
2021/10/03 02:19:50;;;;;;;;;;;;;;;14.92;66.14;95972.97;30001;983;1858;-60
2021/10/03 02:20:21;;;;;;;;;;;;;;;14.91;66.39;95976.03;30001;983;1880;-60
2021/10/03 02:20:53;;;;;;;;;;;;;;;14.88;66.26;95972.09;30001;983;1880;-60
2021/10/03 02:21:26;;;;;;;;;;;;;;;14.88;66.59;95979.50;30001;983;1884;-60
2021/10/03 02:22:00;;;;;;;;;;;;;;;14.87;66.34;95975.16;30001;983;1858;-60
2021/10/03 02:22:31;;;;;;;;;;;;;;;14.86;67.21;95973.56;30001;983;1880;-59
2021/10/03 02:23:03;;;;;;;;;;;;;;;14.83;66.82;95964.13;30001;983;1880;-59
2021/10/03 02:23:35;;;;;;;;;;;;;;;14.83;66.99;95972.31;30001;983;1863;-59
2021/10/03 02:24:11;;;;;;;;;;;;;;;14.85;66.52;95971.97;30001;982;1876;-61
2021/10/03 02:24:42;;;;;;;;;;;;;;;14.85;66.53;95967.31;30001;982;1884;-60
2021/10/03 02:25:13;;;;;;;;;;;;;;;14.85;66.22;95971.97;30001;982;1880;-61
2021/10/03 02:25:44;;;;;;;;;;;;;;;14.85;66.30;95963.78;30001;982;1885;-61
2021/10/03 02:26:17;;;;;;;;;;;;;;;14.84;66.25;95964.91;30001;982;1880;-61
2021/10/03 02:26:48;;;;;;;;;;;;;;;14.84;66.43;95965.72;30001;983;1884;-61
2021/10/03 02:27:19;;;;;;;;;;;;;;;14.86;65.92;95966.16;30001;983;1880;-59
2021/10/03 02:27:50;;;;;;;;;;;;;;;14.89;65.69;95965.50;30001;983;1884;-61
2021/10/03 02:28:23;;;;;;;;;;;;;;;14.93;65.69;95968.31;30001;983;1880;-60
2021/10/03 02:28:54;;;;;;;;;;;;;;;14.92;65.72;95963.97;30001;983;1863;-60
2021/10/03 02:29:24;;;;;;;;;;;;;;;14.92;65.59;95967.50;30001;983;1876;-61
2021/10/03 02:29:55;;;;;;;;;;;;;;;14.92;65.91;95961.25;30001;983;1884;-61
2021/10/03 02:30:26;;;;;;;;;;;;;;;14.94;65.76;95964.44;30001;983;1880;-60
2021/10/03 02:30:59;;;;;;;;;;;;;;;14.92;65.84;95964.78;30001;983;1863;-60
2021/10/03 02:31:31;;;;;;;;;;;;;;;14.92;65.91;95955.78;30001;983;1876;-60
2021/10/03 02:32:02;;;;;;;;;;;;;;;14.94;66.07;95958.97;30001;982;1885;-61
2021/10/03 02:32:33;;;;;;;;;;;;;;;14.92;65.94;95953.06;30001;982;1881;-59
2021/10/03 02:33:04;;;;;;;;;;;;;;;14.94;66.02;95958.97;30001;982;1885;-62
2021/10/03 02:33:35;;;;;;;;;;;;;;;14.95;65.95;95960.56;30001;982;1880;-61
2021/10/03 02:34:06;;;;;;;;;;;;;;;14.96;66.08;95959.44;30001;983;1884;-62
2021/10/03 02:34:37;;;;;;;;;;;;;;;14.94;66.02;95953.50;30001;983;1858;-62
2021/10/03 02:35:09;;;;;;;;;;;;;;;14.92;66.00;95947.59;30001;983;1880;-59
2021/10/03 02:35:41;;;;;;;;;;;;;;;14.90;66.06;95955.38;30001;983;1880;-61
2021/10/03 02:36:13;;;;;;;;;;;;;;;14.91;66.59;95955.00;30001;983;1884;-62
2021/10/03 02:36:44;;;;;;;;;;;;;;;14.91;66.60;95943.28;30001;983;1880;-62
2021/10/03 02:37:15;;;;;;;;;;;;;;;14.90;66.62;95947.16;30001;983;1884;-62
2021/10/03 02:37:46;;;;;;;;;;;;;;;14.91;66.39;95956.94;30001;983;1880;-62
2021/10/03 02:38:19;;;;;;;;;;;;;;;14.90;66.67;95947.16;30001;983;1885;-62
2021/10/03 02:38:51;;;;;;;;;;;;;;;14.90;66.60;95947.94;30001;983;1858;-62
2021/10/03 02:39:22;;;;;;;;;;;;;;;14.89;66.67;95945.56;30001;982;1880;-62
2021/10/03 02:39:53;;;;;;;;;;;;;;;14.88;66.84;95943.97;30001;982;1880;-60
2021/10/03 02:40:24;;;;;;;;;;;;;;;14.86;66.90;95949.00;30001;982;1885;-61
2021/10/03 02:40:56;;;;;;;;;;;;;;;14.84;66.56;95941.13;30001;982;1880;-63
2021/10/03 02:41:27;;;;;;;;;;;;;;;14.85;66.88;95939.19;30001;982;1863;-62
2021/10/03 02:41:58;;;;;;;;;;;;;;;14.82;66.71;95939.88;30001;983;1875;-62
2021/10/03 02:42:29;;;;;;;;;;;;;;;14.81;66.91;95941.03;30001;983;1884;-60
2021/10/03 02:43:05;;;;;;;;;;;;;;;14.81;66.66;95938.28;30001;983;1880;-61
2021/10/03 02:43:37;;;;;;;;;;;;;;;14.81;66.93;95935.56;30001;983;1884;-61
2021/10/03 02:44:08;;;;;;;;;;;;;;;14.81;66.91;95935.56;30001;983;1858;-60
2021/10/03 02:44:39;;;;;;;;;;;;;;;14.79;66.72;95938.63;30001;983;1858;-60
2021/10/03 02:45:11;;;;;;;;;;;;;;;14.78;66.71;95933.50;30001;983;1880;-62
2021/10/03 02:45:43;;;;;;;;;;;;;;;14.79;66.78;95935.09;30001;983;1884;-61
2021/10/03 02:46:15;;;;;;;;;;;;;;;14.78;66.66;95928.06;30001;983;1880;-61
2021/10/03 02:46:46;;;;;;;;;;;;;;;14.73;66.59;95932.59;30001;982;1885;-62
2021/10/03 02:47:16;;;;;;;;;;;;;;;14.73;66.59;95924.41;30001;982;1880;-61
2021/10/03 02:47:47;;;;;;;;;;;;;;;14.72;67.08;95930.22;30001;982;1885;-61
2021/10/03 02:48:19;;;;;;;;;;;;;;;14.70;66.82;95927.81;30001;982;1880;-63
2021/10/03 02:48:51;;;;;;;;;;;;;;;14.70;67.06;95922.38;30001;982;1885;-61
2021/10/03 02:49:22;;;;;;;;;;;;;;;14.68;67.13;95930.09;30001;983;1858;-61